sensor_id;sensor_type;location;lat;lon;timestamp;pressure;altitude;pressure_sealevel;temperature;humidity
2711;BME280;20721;47.402;8.550;2024-02-21T00:01:49;97151;;;7.56;57.12
2711;BME280;20721;47.402;8.550;2024-02-21T00:03:49;97152;;;7.56;57.39
2711;BME280;20721;47.402;8.550;2024-02-21T00:05:49;97151;;;7.54;57.21
2711;BME280;20721;47.402;8.550;2024-02-21T00:07:49;97155;;;7.53;57.20
2711;BME280;20721;47.402;8.550;2024-02-21T00:09:49;97154;;;7.52;57.29
2711;BME280;20721;47.402;8.550;2024-02-21T00:11:49;97161;;;7.54;57.51
2711;BME280;20721;47.402;8.550;2024-02-21T00:14:49;97156;;;7.55;57.35
2711;BME280;20721;47.402;8.550;2024-02-21T00:16:49;97151;;;7.54;57.49
2711;BME280;20721;47.402;8.550;2024-02-21T00:18:49;97147;;;7.54;57.21
2711;BME280;20721;47.402;8.550;2024-02-21T00:20:50;97150;;;7.52;57.27
2711;BME280;20721;47.402;8.550;2024-02-21T00:22:49;97155;;;7.47;57.38
2711;BME280;20721;47.402;8.550;2024-02-21T00:24:49;97151;;;7.43;57.60
2711;BME280;20721;47.402;8.550;2024-02-21T00:26:49;97148;;;7.43;57.59
2711;BME280;20721;47.402;8.550;2024-02-21T00:28:49;97137;;;7.36;57.63
2711;BME280;20721;47.402;8.550;2024-02-21T00:30:50;97135;;;7.34;57.41
2711;BME280;20721;47.402;8.550;2024-02-21T00:34:49;97128;;;7.32;57.52
2711;BME280;20721;47.402;8.550;2024-02-21T00:37:49;97126;;;7.36;57.57
2711;BME280;20721;47.402;8.550;2024-02-21T00:40:49;97126;;;7.38;57.84
2711;BME280;20721;47.402;8.550;2024-02-21T00:42:49;97124;;;7.34;57.77
2711;BME280;20721;47.402;8.550;2024-02-21T00:44:49;97115;;;7.31;57.56
2711;BME280;20721;47.402;8.550;2024-02-21T00:46:49;97121;;;7.30;57.65
2711;BME280;20721;47.402;8.550;2024-02-21T00:48:50;97116;;;7.20;57.90
2711;BME280;20721;47.402;8.550;2024-02-21T00:50:49;97115;;;7.07;58.40
2711;BME280;20721;47.402;8.550;2024-02-21T00:52:49;97112;;;7.12;58.55
2711;BME280;20721;47.402;8.550;2024-02-21T00:54:55;97105;;;7.18;58.21
2711;BME280;20721;47.402;8.550;2024-02-21T00:56:49;97099;;;7.11;58.27
2711;BME280;20721;47.402;8.550;2024-02-21T00:58:49;97093;;;7.12;58.16
2711;BME280;20721;47.402;8.550;2024-02-21T01:00:49;97098;;;7.09;58.34
2711;BME280;20721;47.402;8.550;2024-02-21T01:02:53;97100;;;7.12;58.29
2711;BME280;20721;47.402;8.550;2024-02-21T01:04:49;97103;;;7.16;58.34
2711;BME280;20721;47.402;8.550;2024-02-21T01:06:49;97106;;;7.20;58.08
2711;BME280;20721;47.402;8.550;2024-02-21T01:08:49;97108;;;7.20;58.24
2711;BME280;20721;47.402;8.550;2024-02-21T01:11:49;97115;;;7.20;58.34
2711;BME280;20721;47.402;8.550;2024-02-21T01:13:49;97115;;;7.20;58.27
2711;BME280;20721;47.402;8.550;2024-02-21T01:15:49;97117;;;7.21;58.27
2711;BME280;20721;47.402;8.550;2024-02-21T01:17:54;97117;;;7.24;58.06
2711;BME280;20721;47.402;8.550;2024-02-21T01:19:49;97118;;;7.27;57.92
2711;BME280;20721;47.402;8.550;2024-02-21T01:23:50;97107;;;7.26;57.93
2711;BME280;20721;47.402;8.550;2024-02-21T01:25:49;97108;;;7.23;58.12
2711;BME280;20721;47.402;8.550;2024-02-21T01:27:49;97112;;;7.25;58.06
2711;BME280;20721;47.402;8.550;2024-02-21T01:30:49;97114;;;7.31;58.21
2711;BME280;20721;47.402;8.550;2024-02-21T01:32:49;97112;;;7.36;58.38
2711;BME280;20721;47.402;8.550;2024-02-21T01:34:50;97108;;;7.38;58.09
2711;BME280;20721;47.402;8.550;2024-02-21T01:36:49;97110;;;7.38;58.09
2711;BME280;20721;47.402;8.550;2024-02-21T01:38:49;97103;;;7.37;58.11
2711;BME280;20721;47.402;8.550;2024-02-21T01:40:49;97096;;;7.36;58.15
2711;BME280;20721;47.402;8.550;2024-02-21T01:42:49;97094;;;7.23;58.35
2711;BME280;20721;47.402;8.550;2024-02-21T01:44:49;97091;;;7.09;58.66
2711;BME280;20721;47.402;8.550;2024-02-21T01:46:49;97083;;;7.02;59.55
2711;BME280;20721;47.402;8.550;2024-02-21T01:48:49;97086;;;7.11;59.39
2711;BME280;20721;47.402;8.550;2024-02-21T01:50:49;97080;;;7.12;59.67
2711;BME280;20721;47.402;8.550;2024-02-21T01:52:49;97079;;;7.00;60.25
2711;BME280;20721;47.402;8.550;2024-02-21T01:54:49;97078;;;7.14;60.19
2711;BME280;20721;47.402;8.550;2024-02-21T01:56:49;97070;;;7.16;59.96
2711;BME280;20721;47.402;8.550;2024-02-21T01:59:51;97062;;;7.09;59.83
2711;BME280;20721;47.402;8.550;2024-02-21T02:01:50;97057;;;7.21;59.56
2711;BME280;20721;47.402;8.550;2024-02-21T02:03:49;97058;;;7.35;59.12
2711;BME280;20721;47.402;8.550;2024-02-21T02:05:49;97057;;;7.46;58.79
2711;BME280;20721;47.402;8.550;2024-02-21T02:07:49;97058;;;7.53;58.54
2711;BME280;20721;47.402;8.550;2024-02-21T02:09:49;97057;;;7.60;58.38
2711;BME280;20721;47.402;8.550;2024-02-21T02:11:50;97050;;;7.66;58.33
2711;BME280;20721;47.402;8.550;2024-02-21T02:13:49;97047;;;7.65;58.30
2711;BME280;20721;47.402;8.550;2024-02-21T02:15:49;97043;;;7.67;58.21
2711;BME280;20721;47.402;8.550;2024-02-21T02:18:49;97043;;;7.70;58.36
2711;BME280;20721;47.402;8.550;2024-02-21T02:20:50;97043;;;7.77;58.29
2711;BME280;20721;47.402;8.550;2024-02-21T02:22:49;97045;;;7.82;58.09
2711;BME280;20721;47.402;8.550;2024-02-21T02:26:49;97033;;;7.82;57.75
2711;BME280;20721;47.402;8.550;2024-02-21T02:28:50;97026;;;7.73;57.80
2711;BME280;20721;47.402;8.550;2024-02-21T02:30:49;97023;;;7.69;57.91
2711;BME280;20721;47.402;8.550;2024-02-21T02:34:49;97014;;;7.67;58.03
2711;BME280;20721;47.402;8.550;2024-02-21T02:36:49;97013;;;7.69;58.12
2711;BME280;20721;47.402;8.550;2024-02-21T02:38:49;97012;;;7.66;58.02
2711;BME280;20721;47.402;8.550;2024-02-21T02:40:49;97014;;;7.66;58.11
2711;BME280;20721;47.402;8.550;2024-02-21T02:42:49;97010;;;7.66;58.01
2711;BME280;20721;47.402;8.550;2024-02-21T02:44:49;97010;;;7.68;58.00
2711;BME280;20721;47.402;8.550;2024-02-21T02:46:49;97006;;;7.70;57.98
2711;BME280;20721;47.402;8.550;2024-02-21T02:48:50;97007;;;7.72;57.99
2711;BME280;20721;47.402;8.550;2024-02-21T02:50:49;97001;;;7.71;57.85
2711;BME280;20721;47.402;8.550;2024-02-21T02:53:49;96989;;;7.64;57.96
2711;BME280;20721;47.402;8.550;2024-02-21T02:55:49;96987;;;7.61;58.17
2711;BME280;20721;47.402;8.550;2024-02-21T02:58:49;96988;;;7.61;58.39
2711;BME280;20721;47.402;8.550;2024-02-21T03:00:49;96979;;;7.66;58.47
2711;BME280;20721;47.402;8.550;2024-02-21T03:02:49;96976;;;7.71;58.14
2711;BME280;20721;47.402;8.550;2024-02-21T03:04:50;96973;;;7.70;57.66
2711;BME280;20721;47.402;8.550;2024-02-21T03:06:50;96967;;;7.64;57.70
2711;BME280;20721;47.402;8.550;2024-02-21T03:08:50;96970;;;7.60;57.79
2711;BME280;20721;47.402;8.550;2024-02-21T03:10:50;96965;;;7.57;57.99
2711;BME280;20721;47.402;8.550;2024-02-21T03:12:50;96957;;;7.55;58.03
2711;BME280;20721;47.402;8.550;2024-02-21T03:17:49;96951;;;7.57;57.99
2711;BME280;20721;47.402;8.550;2024-02-21T03:20:49;96945;;;7.54;58.14
2711;BME280;20721;47.402;8.550;2024-02-21T03:23:49;96931;;;7.53;58.13
2711;BME280;20721;47.402;8.550;2024-02-21T03:25:49;96922;;;7.50;58.11
2711;BME280;20721;47.402;8.550;2024-02-21T03:28:50;96921;;;7.47;58.06
2711;BME280;20721;47.402;8.550;2024-02-21T03:30:49;96920;;;7.46;58.08
2711;BME280;20721;47.402;8.550;2024-02-21T03:33:50;96916;;;7.47;58.25
2711;BME280;20721;47.402;8.550;2024-02-21T03:35:49;96915;;;7.47;58.19
2711;BME280;20721;47.402;8.550;2024-02-21T03:37:49;96914;;;7.49;58.25
2711;BME280;20721;47.402;8.550;2024-02-21T03:40:49;96904;;;7.51;58.32
2711;BME280;20721;47.402;8.550;2024-02-21T03:42:49;96899;;;7.51;58.13
2711;BME280;20721;47.402;8.550;2024-02-21T03:44:50;96890;;;7.50;57.99
2711;BME280;20721;47.402;8.550;2024-02-21T03:46:50;96886;;;7.47;57.97
2711;BME280;20721;47.402;8.550;2024-02-21T03:48:49;96878;;;7.39;58.18
2711;BME280;20721;47.402;8.550;2024-02-21T03:50:51;96876;;;7.35;58.57
2711;BME280;20721;47.402;8.550;2024-02-21T03:53:49;96871;;;7.33;58.31
2711;BME280;20721;47.402;8.550;2024-02-21T03:55:50;96876;;;7.30;58.28
2711;BME280;20721;47.402;8.550;2024-02-21T03:57:49;96874;;;7.28;58.26
2711;BME280;20721;47.402;8.550;2024-02-21T03:59:50;96869;;;7.25;58.40
2711;BME280;20721;47.402;8.550;2024-02-21T04:03:49;96873;;;7.24;58.40
2711;BME280;20721;47.402;8.550;2024-02-21T04:05:50;96874;;;7.22;58.54
2711;BME280;20721;47.402;8.550;2024-02-21T04:07:51;96880;;;7.19;58.56
2711;BME280;20721;47.402;8.550;2024-02-21T04:10:50;96871;;;7.19;58.54
2711;BME280;20721;47.402;8.550;2024-02-21T04:12:50;96876;;;7.19;58.58
2711;BME280;20721;47.402;8.550;2024-02-21T04:14:49;96867;;;7.17;58.42
2711;BME280;20721;47.402;8.550;2024-02-21T04:16:50;96867;;;7.10;58.55
2711;BME280;20721;47.402;8.550;2024-02-21T04:18:51;96864;;;7.09;58.61
2711;BME280;20721;47.402;8.550;2024-02-21T04:20:50;96862;;;7.10;58.62
2711;BME280;20721;47.402;8.550;2024-02-21T04:22:50;96866;;;7.04;58.83
2711;BME280;20721;47.402;8.550;2024-02-21T04:24:49;96865;;;7.04;59.02
2711;BME280;20721;47.402;8.550;2024-02-21T04:27:50;96861;;;7.07;58.89
2711;BME280;20721;47.402;8.550;2024-02-21T04:30:50;96866;;;7.10;58.87
2711;BME280;20721;47.402;8.550;2024-02-21T04:32:50;96862;;;7.13;58.83
2711;BME280;20721;47.402;8.550;2024-02-21T04:36:51;96875;;;7.14;58.58
2711;BME280;20721;47.402;8.550;2024-02-21T04:38:50;96875;;;7.08;59.26
2711;BME280;20721;47.402;8.550;2024-02-21T04:40:50;96875;;;7.08;59.47
2711;BME280;20721;47.402;8.550;2024-02-21T04:42:50;96870;;;7.08;59.93
2711;BME280;20721;47.402;8.550;2024-02-21T04:44:50;96865;;;7.16;59.96
2711;BME280;20721;47.402;8.550;2024-02-21T04:46:50;96862;;;7.09;60.34
2711;BME280;20721;47.402;8.550;2024-02-21T04:48:50;96860;;;6.94;60.98
2711;BME280;20721;47.402;8.550;2024-02-21T04:50:50;96858;;;7.00;60.92
2711;BME280;20721;47.402;8.550;2024-02-21T04:52:50;96866;;;7.09;60.75
2711;BME280;20721;47.402;8.550;2024-02-21T04:54:50;96861;;;7.18;60.58
2711;BME280;20721;47.402;8.550;2024-02-21T04:56:53;96855;;;7.19;60.25
2711;BME280;20721;47.402;8.550;2024-02-21T04:58:50;96844;;;7.08;59.28
2711;BME280;20721;47.402;8.550;2024-02-21T05:00:50;96839;;;6.90;59.71
2711;BME280;20721;47.402;8.550;2024-02-21T05:02:50;96829;;;6.88;59.86
2711;BME280;20721;47.402;8.550;2024-02-21T05:04:50;96828;;;6.94;59.85
2711;BME280;20721;47.402;8.550;2024-02-21T05:06:50;96827;;;7.00;59.72
2711;BME280;20721;47.402;8.550;2024-02-21T05:08:50;96826;;;7.02;59.68
2711;BME280;20721;47.402;8.550;2024-02-21T05:10:50;96822;;;7.06;59.62
2711;BME280;20721;47.402;8.550;2024-02-21T05:12:50;96815;;;7.06;59.39
2711;BME280;20721;47.402;8.550;2024-02-21T05:14:50;96814;;;7.08;59.38
2711;BME280;20721;47.402;8.550;2024-02-21T05:18:50;96813;;;7.10;59.43
2711;BME280;20721;47.402;8.550;2024-02-21T05:20:50;96815;;;7.12;59.21
2711;BME280;20721;47.402;8.550;2024-02-21T05:22:50;96821;;;7.08;59.15
2711;BME280;20721;47.402;8.550;2024-02-21T05:25:50;96820;;;7.07;59.62
2711;BME280;20721;47.402;8.550;2024-02-21T05:27:50;96812;;;7.09;59.42
2711;BME280;20721;47.402;8.550;2024-02-21T05:29:50;96810;;;7.13;59.41
2711;BME280;20721;47.402;8.550;2024-02-21T05:32:50;96807;;;7.18;59.45
2711;BME280;20721;47.402;8.550;2024-02-21T05:34:50;96807;;;7.24;59.40
2711;BME280;20721;47.402;8.550;2024-02-21T05:37:52;96808;;;7.27;59.14
2711;BME280;20721;47.402;8.550;2024-02-21T05:39:50;96810;;;7.24;58.95
2711;BME280;20721;47.402;8.550;2024-02-21T05:41:50;96811;;;7.20;59.05
2711;BME280;20721;47.402;8.550;2024-02-21T05:44:50;96819;;;7.22;59.21
2711;BME280;20721;47.402;8.550;2024-02-21T05:46:50;96822;;;7.24;59.00
2711;BME280;20721;47.402;8.550;2024-02-21T05:48:50;96820;;;7.22;59.04
2711;BME280;20721;47.402;8.550;2024-02-21T05:51:50;96807;;;7.25;59.29
2711;BME280;20721;47.402;8.550;2024-02-21T05:53:50;96805;;;7.20;59.06
2711;BME280;20721;47.402;8.550;2024-02-21T05:55:50;96804;;;7.07;59.72
2711;BME280;20721;47.402;8.550;2024-02-21T05:57:53;96801;;;7.10;59.87
2711;BME280;20721;47.402;8.550;2024-02-21T05:59:50;96794;;;7.17;59.93
2711;BME280;20721;47.402;8.550;2024-02-21T06:01:55;96793;;;7.22;59.40
2711;BME280;20721;47.402;8.550;2024-02-21T06:03:50;96782;;;7.18;59.17
2711;BME280;20721;47.402;8.550;2024-02-21T06:05:50;96785;;;7.13;59.25
2711;BME280;20721;47.402;8.550;2024-02-21T06:07:50;96776;;;6.92;59.84
2711;BME280;20721;47.402;8.550;2024-02-21T06:09:50;96776;;;6.88;60.00
2711;BME280;20721;47.402;8.550;2024-02-21T06:11:50;96778;;;6.93;59.99
2711;BME280;20721;47.402;8.550;2024-02-21T06:13:50;96781;;;6.97;59.91
2711;BME280;20721;47.402;8.550;2024-02-21T06:15:50;96780;;;7.03;59.78
2711;BME280;20721;47.402;8.550;2024-02-21T06:17:50;96777;;;7.07;59.67
2711;BME280;20721;47.402;8.550;2024-02-21T06:19:50;96771;;;7.12;59.57
2711;BME280;20721;47.402;8.550;2024-02-21T06:21:50;96771;;;7.16;59.61
2711;BME280;20721;47.402;8.550;2024-02-21T06:23:50;96770;;;7.21;59.56
2711;BME280;20721;47.402;8.550;2024-02-21T06:25:50;96769;;;7.23;59.58
2711;BME280;20721;47.402;8.550;2024-02-21T06:27:50;96773;;;7.25;59.55
2711;BME280;20721;47.402;8.550;2024-02-21T06:30:50;96771;;;7.24;59.24
2711;BME280;20721;47.402;8.550;2024-02-21T06:32:50;96778;;;7.31;59.38
2711;BME280;20721;47.402;8.550;2024-02-21T06:34:50;96778;;;7.37;59.31
2711;BME280;20721;47.402;8.550;2024-02-21T06:36:50;96782;;;7.43;59.24
2711;BME280;20721;47.402;8.550;2024-02-21T06:38:50;96785;;;7.47;59.28
2711;BME280;20721;47.402;8.550;2024-02-21T06:40:52;96785;;;7.48;59.31
2711;BME280;20721;47.402;8.550;2024-02-21T06:42:50;96786;;;7.53;59.21
2711;BME280;20721;47.402;8.550;2024-02-21T06:44:50;96786;;;7.57;59.29
2711;BME280;20721;47.402;8.550;2024-02-21T06:46:50;96788;;;7.63;59.09
2711;BME280;20721;47.402;8.550;2024-02-21T06:48:50;96788;;;7.66;59.00
2711;BME280;20721;47.402;8.550;2024-02-21T06:50:51;96785;;;7.69;58.96
2711;BME280;20721;47.402;8.550;2024-02-21T06:52:50;96787;;;7.71;58.96
2711;BME280;20721;47.402;8.550;2024-02-21T06:54:50;96791;;;7.76;58.83
2711;BME280;20721;47.402;8.550;2024-02-21T06:56:50;96792;;;7.79;58.66
2711;BME280;20721;47.402;8.550;2024-02-21T06:58:50;96795;;;7.83;58.58
2711;BME280;20721;47.402;8.550;2024-02-21T07:00:50;96797;;;7.86;58.39
2711;BME280;20721;47.402;8.550;2024-02-21T07:04:50;96793;;;7.94;58.28
2711;BME280;20721;47.402;8.550;2024-02-21T07:06:51;96793;;;8.00;58.03
2711;BME280;20721;47.402;8.550;2024-02-21T07:08:50;96793;;;8.08;57.89
2711;BME280;20721;47.402;8.550;2024-02-21T07:10:50;96790;;;8.16;57.64
2711;BME280;20721;47.402;8.550;2024-02-21T07:12:52;96790;;;8.23;57.50
2711;BME280;20721;47.402;8.550;2024-02-21T07:14:50;96792;;;8.26;57.34
2711;BME280;20721;47.402;8.550;2024-02-21T07:16:50;96788;;;8.05;57.73
2711;BME280;20721;47.402;8.550;2024-02-21T07:18:50;96787;;;7.97;58.08
2711;BME280;20721;47.402;8.550;2024-02-21T07:21:50;96788;;;7.95;58.39
2711;BME280;20721;47.402;8.550;2024-02-21T07:23:50;96788;;;8.06;58.14
2711;BME280;20721;47.402;8.550;2024-02-21T07:25:50;96793;;;8.21;57.53
2711;BME280;20721;47.402;8.550;2024-02-21T07:27:50;96795;;;8.34;57.31
2711;BME280;20721;47.402;8.550;2024-02-21T07:29:50;96794;;;9.10;55.32
2711;BME280;20721;47.402;8.550;2024-02-21T07:31:51;96789;;;10.50;51.63
2711;BME280;20721;47.402;8.550;2024-02-21T07:33:50;96786;;;11.89;48.30
2711;BME280;20721;47.402;8.550;2024-02-21T07:35:50;96784;;;13.31;45.30
2711;BME280;20721;47.402;8.550;2024-02-21T07:37:50;96780;;;14.55;41.78
2711;BME280;20721;47.402;8.550;2024-02-21T07:39:50;96775;;;15.21;40.74
2711;BME280;20721;47.402;8.550;2024-02-21T07:41:50;96775;;;15.84;39.51
2711;BME280;20721;47.402;8.550;2024-02-21T07:43:50;96769;;;16.50;37.98
2711;BME280;20721;47.402;8.550;2024-02-21T07:45:50;96775;;;16.99;37.20
2711;BME280;20721;47.402;8.550;2024-02-21T07:47:50;96769;;;17.30;36.80
2711;BME280;20721;47.402;8.550;2024-02-21T07:49:50;96764;;;17.65;35.99
2711;BME280;20721;47.402;8.550;2024-02-21T07:51:50;96765;;;17.78;35.79
2711;BME280;20721;47.402;8.550;2024-02-21T07:53:50;96762;;;17.94;35.41
2711;BME280;20721;47.402;8.550;2024-02-21T07:55:50;96764;;;18.03;35.49
2711;BME280;20721;47.402;8.550;2024-02-21T07:57:50;96760;;;18.14;34.95
2711;BME280;20721;47.402;8.550;2024-02-21T07:59:50;96755;;;18.31;34.34
2711;BME280;20721;47.402;8.550;2024-02-21T08:01:50;96756;;;18.65;34.23
2711;BME280;20721;47.402;8.550;2024-02-21T08:03:50;96750;;;18.73;33.74
2711;BME280;20721;47.402;8.550;2024-02-21T08:05:50;96749;;;18.83;33.18
2711;BME280;20721;47.402;8.550;2024-02-21T08:07:50;96751;;;18.94;33.39
2711;BME280;20721;47.402;8.550;2024-02-21T08:09:50;96750;;;19.31;32.61
2711;BME280;20721;47.402;8.550;2024-02-21T08:11:50;96744;;;19.72;32.27
2711;BME280;20721;47.402;8.550;2024-02-21T08:13:50;96746;;;19.77;32.06
2711;BME280;20721;47.402;8.550;2024-02-21T08:15:50;96742;;;19.81;32.18
2711;BME280;20721;47.402;8.550;2024-02-21T08:17:50;96750;;;19.79;32.02
2711;BME280;20721;47.402;8.550;2024-02-21T08:19:51;96747;;;19.73;32.21
2711;BME280;20721;47.402;8.550;2024-02-21T08:21:50;96743;;;19.68;32.07
2711;BME280;20721;47.402;8.550;2024-02-21T08:23:51;96739;;;19.74;32.19
2711;BME280;20721;47.402;8.550;2024-02-21T08:25:50;96730;;;19.95;31.68
2711;BME280;20721;47.402;8.550;2024-02-21T08:27:51;96730;;;20.10;31.67
2711;BME280;20721;47.402;8.550;2024-02-21T08:29:50;96728;;;19.94;31.41
2711;BME280;20721;47.402;8.550;2024-02-21T08:31:50;96725;;;19.92;31.61
2711;BME280;20721;47.402;8.550;2024-02-21T08:33:50;96725;;;20.13;31.52
2711;BME280;20721;47.402;8.550;2024-02-21T08:35:51;96723;;;20.61;31.13
2711;BME280;20721;47.402;8.550;2024-02-21T08:37:50;96721;;;21.14;29.88
2711;BME280;20721;47.402;8.550;2024-02-21T08:39:50;96719;;;21.50;29.56
2711;BME280;20721;47.402;8.550;2024-02-21T08:41:58;96722;;;21.78;29.37
2711;BME280;20721;47.402;8.550;2024-02-21T08:44:51;96722;;;21.74;28.67
2711;BME280;20721;47.402;8.550;2024-02-21T08:46:50;96722;;;21.56;28.83
2711;BME280;20721;47.402;8.550;2024-02-21T08:48:51;96722;;;21.51;28.95
2711;BME280;20721;47.402;8.550;2024-02-21T08:50:50;96721;;;21.22;29.08
2711;BME280;20721;47.402;8.550;2024-02-21T08:52:50;96720;;;21.04;29.27
2711;BME280;20721;47.402;8.550;2024-02-21T08:54:53;96717;;;20.94;29.62
2711;BME280;20721;47.402;8.550;2024-02-21T08:56:50;96711;;;20.78;29.59
2711;BME280;20721;47.402;8.550;2024-02-21T08:58:50;96709;;;20.63;29.67
2711;BME280;20721;47.402;8.550;2024-02-21T09:00:51;96711;;;20.71;29.24
2711;BME280;20721;47.402;8.550;2024-02-21T09:02:50;96709;;;20.74;29.43
2711;BME280;20721;47.402;8.550;2024-02-21T09:04:50;96709;;;20.74;29.31
2711;BME280;20721;47.402;8.550;2024-02-21T09:06:52;96711;;;20.89;29.17
2711;BME280;20721;47.402;8.550;2024-02-21T09:08:50;96703;;;21.31;28.80
2711;BME280;20721;47.402;8.550;2024-02-21T09:10:50;96707;;;21.79;28.27
2711;BME280;20721;47.402;8.550;2024-02-21T09:12:50;96705;;;21.96;27.97
2711;BME280;20721;47.402;8.550;2024-02-21T09:14:50;96702;;;22.05;27.99
2711;BME280;20721;47.402;8.550;2024-02-21T09:16:50;96702;;;21.87;27.86
2711;BME280;20721;47.402;8.550;2024-02-21T09:18:50;96698;;;21.56;27.96
2711;BME280;20721;47.402;8.550;2024-02-21T09:20:50;96697;;;21.33;28.24
2711;BME280;20721;47.402;8.550;2024-02-21T09:22:51;96699;;;21.05;28.51
2711;BME280;20721;47.402;8.550;2024-02-21T09:24:50;96697;;;20.96;28.62
2711;BME280;20721;47.402;8.550;2024-02-21T09:27:53;96698;;;20.90;28.47
2711;BME280;20721;47.402;8.550;2024-02-21T09:29:51;96701;;;21.15;28.34
2711;BME280;20721;47.402;8.550;2024-02-21T09:31:50;96692;;;21.30;28.08
2711;BME280;20721;47.402;8.550;2024-02-21T09:33:50;96692;;;21.23;28.23
2711;BME280;20721;47.402;8.550;2024-02-21T09:35:50;96696;;;21.19;28.11
2711;BME280;20721;47.402;8.550;2024-02-21T09:37:50;96696;;;20.92;28.30
2711;BME280;20721;47.402;8.550;2024-02-21T09:39:52;96689;;;20.25;28.72
2711;BME280;20721;47.402;8.550;2024-02-21T09:41:56;96689;;;20.06;29.35
2711;BME280;20721;47.402;8.550;2024-02-21T09:43:53;96688;;;20.69;28.74
2711;BME280;20721;47.402;8.550;2024-02-21T09:45:52;96681;;;20.97;28.29
2711;BME280;20721;47.402;8.550;2024-02-21T09:49:51;96674;;;20.95;27.70
2711;BME280;20721;47.402;8.550;2024-02-21T09:51:51;96669;;;21.01;27.60
2711;BME280;20721;47.402;8.550;2024-02-21T09:54:52;96665;;;21.23;27.60
2711;BME280;20721;47.402;8.550;2024-02-21T09:56:50;96666;;;21.21;27.42
2711;BME280;20721;47.402;8.550;2024-02-21T09:58:51;96665;;;21.48;27.61
2711;BME280;20721;47.402;8.550;2024-02-21T10:00:50;96663;;;21.63;27.42
2711;BME280;20721;47.402;8.550;2024-02-21T10:02:50;96663;;;21.46;27.41
2711;BME280;20721;47.402;8.550;2024-02-21T10:04:50;96666;;;20.96;27.77
2711;BME280;20721;47.402;8.550;2024-02-21T10:06:50;96662;;;19.92;28.84
2711;BME280;20721;47.402;8.550;2024-02-21T10:08:52;96661;;;19.54;30.04
2711;BME280;20721;47.402;8.550;2024-02-21T10:10:53;96663;;;19.32;30.57
2711;BME280;20721;47.402;8.550;2024-02-21T10:12:51;96658;;;19.14;30.57
2711;BME280;20721;47.402;8.550;2024-02-21T10:14:59;96653;;;18.95;31.04
2711;BME280;20721;47.402;8.550;2024-02-21T10:16:56;96650;;;18.80;31.24
2711;BME280;20721;47.402;8.550;2024-02-21T10:18:53;96653;;;18.50;31.75
2711;BME280;20721;47.402;8.550;2024-02-21T10:20:59;96646;;;18.35;31.94
2711;BME280;20721;47.402;8.550;2024-02-21T10:23:00;96644;;;18.26;32.42
2711;BME280;20721;47.402;8.550;2024-02-21T10:24:50;96646;;;18.24;32.53
2711;BME280;20721;47.402;8.550;2024-02-21T10:26:58;96644;;;18.36;32.52
2711;BME280;20721;47.402;8.550;2024-02-21T10:28:52;96638;;;18.40;32.88
2711;BME280;20721;47.402;8.550;2024-02-21T10:30:52;96635;;;17.96;32.86
2711;BME280;20721;47.402;8.550;2024-02-21T10:32:52;96635;;;17.13;33.86
2711;BME280;20721;47.402;8.550;2024-02-21T10:35:00;96633;;;16.66;34.62
2711;BME280;20721;47.402;8.550;2024-02-21T10:36:59;96637;;;16.32;35.68
2711;BME280;20721;47.402;8.550;2024-02-21T10:38:51;96631;;;16.46;35.72
2711;BME280;20721;47.402;8.550;2024-02-21T10:40:52;96629;;;16.60;35.34
2711;BME280;20721;47.402;8.550;2024-02-21T10:42:56;96632;;;16.80;35.59
2711;BME280;20721;47.402;8.550;2024-02-21T10:44:51;96624;;;16.95;35.21
2711;BME280;20721;47.402;8.550;2024-02-21T10:46:50;96625;;;16.87;35.31
2711;BME280;20721;47.402;8.550;2024-02-21T10:48:55;96620;;;16.28;35.66
2711;BME280;20721;47.402;8.550;2024-02-21T10:50:56;96613;;;15.86;36.15
2711;BME280;20721;47.402;8.550;2024-02-21T10:52:51;96609;;;15.45;37.13
2711;BME280;20721;47.402;8.550;2024-02-21T10:54:54;96603;;;15.20;37.45
2711;BME280;20721;47.402;8.550;2024-02-21T10:56:51;96601;;;14.66;37.99
2711;BME280;20721;47.402;8.550;2024-02-21T10:58:51;96598;;;14.07;38.82
2711;BME280;20721;47.402;8.550;2024-02-21T11:00:51;96599;;;13.88;39.44
2711;BME280;20721;47.402;8.550;2024-02-21T11:02:51;96592;;;14.05;39.69
2711;BME280;20721;47.402;8.550;2024-02-21T11:04:53;96586;;;14.13;39.33
2711;BME280;20721;47.402;8.550;2024-02-21T11:06:52;96575;;;14.15;38.91
2711;BME280;20721;47.402;8.550;2024-02-21T11:09:03;96574;;;13.83;39.87
2711;BME280;20721;47.402;8.550;2024-02-21T11:10:56;96568;;;13.64;40.21
2711;BME280;20721;47.402;8.550;2024-02-21T11:12:52;96568;;;13.66;39.87
2711;BME280;20721;47.402;8.550;2024-02-21T11:14:51;96560;;;13.62;40.22
2711;BME280;20721;47.402;8.550;2024-02-21T11:16:51;96559;;;14.08;39.77
2711;BME280;20721;47.402;8.550;2024-02-21T11:18:51;96554;;;14.67;39.38
2711;BME280;20721;47.402;8.550;2024-02-21T11:20:51;96554;;;15.07;38.66
2711;BME280;20721;47.402;8.550;2024-02-21T11:22:52;96551;;;14.71;38.56
2711;BME280;20721;47.402;8.550;2024-02-21T11:24:51;96547;;;14.54;38.18
2711;BME280;20721;47.402;8.550;2024-02-21T11:26:51;96537;;;14.18;39.04
2711;BME280;20721;47.402;8.550;2024-02-21T11:28:57;96531;;;14.06;39.41
2711;BME280;20721;47.402;8.550;2024-02-21T11:30:51;96532;;;14.19;39.58
2711;BME280;20721;47.402;8.550;2024-02-21T11:32:58;96525;;;13.97;39.55
2711;BME280;20721;47.402;8.550;2024-02-21T11:35:53;96519;;;13.86;39.88
2711;BME280;20721;47.402;8.550;2024-02-21T11:37:51;96512;;;13.80;39.98
2711;BME280;20721;47.402;8.550;2024-02-21T11:39:53;96509;;;13.89;40.47
2711;BME280;20721;47.402;8.550;2024-02-21T11:42:10;96510;;;13.89;39.69
2711;BME280;20721;47.402;8.550;2024-02-21T11:43:51;96501;;;13.71;39.61
2711;BME280;20721;47.402;8.550;2024-02-21T11:45:58;96498;;;13.64;40.19
2711;BME280;20721;47.402;8.550;2024-02-21T11:47:51;96499;;;13.49;40.11
2711;BME280;20721;47.402;8.550;2024-02-21T11:49:53;96485;;;13.44;40.66
2711;BME280;20721;47.402;8.550;2024-02-21T11:51:57;96483;;;13.81;40.06
2711;BME280;20721;47.402;8.550;2024-02-21T11:54:51;96478;;;14.30;39.33
2711;BME280;20721;47.402;8.550;2024-02-21T11:56:51;96477;;;14.76;39.46
2711;BME280;20721;47.402;8.550;2024-02-21T11:58:51;96476;;;14.59;38.41
2711;BME280;20721;47.402;8.550;2024-02-21T12:00:51;96476;;;14.57;38.68
2711;BME280;20721;47.402;8.550;2024-02-21T12:02:51;96473;;;14.29;38.86
2711;BME280;20721;47.402;8.550;2024-02-21T12:04:51;96464;;;14.13;39.45
2711;BME280;20721;47.402;8.550;2024-02-21T12:06:52;96464;;;14.42;39.48
2711;BME280;20721;47.402;8.550;2024-02-21T12:08:51;96460;;;14.65;38.97